createdAt,value
2022-11-25T00:00:23.667Z,1018.09
2022-11-25T00:01:23.638Z,1018.08
2022-11-25T00:02:23.746Z,1018.14
2022-11-25T00:03:23.688Z,1018.1
2022-11-25T00:04:23.636Z,1018.11
2022-11-25T00:05:23.651Z,1018.08
2022-11-25T00:06:23.716Z,1018.04
2022-11-25T00:07:23.697Z,1018.02
2022-11-25T00:08:23.645Z,1018.01
2022-11-25T00:09:23.640Z,1018
2022-11-25T00:10:23.647Z,1018
2022-11-25T00:11:23.643Z,1017.98
2022-11-25T00:12:23.719Z,1017.97
2022-11-25T00:13:23.637Z,1018
2022-11-25T00:14:23.643Z,1017.95
2022-11-25T00:15:23.684Z,1018
2022-11-25T00:16:23.758Z,1017.96
2022-11-25T00:17:23.647Z,1018.01
2022-11-25T00:18:23.669Z,1018.06
2022-11-25T00:19:23.639Z,1018.04
2022-11-25T00:20:23.654Z,1018.07
2022-11-25T00:21:23.642Z,1018.03
2022-11-25T00:22:23.632Z,1018.03
2022-11-25T00:23:23.640Z,1018.02
2022-11-25T00:24:23.639Z,1018.02
2022-11-25T00:25:23.655Z,1018.04
2022-11-25T00:26:23.625Z,1018.05
2022-11-25T00:27:23.641Z,1018.13
2022-11-25T00:28:23.644Z,1018.17
2022-11-25T00:29:23.647Z,1018.14
2022-11-25T00:30:23.661Z,1018.11
2022-11-25T00:31:23.767Z,1018.14
2022-11-25T00:32:23.639Z,1018.16
2022-11-25T00:33:23.636Z,1018.14
2022-11-25T00:34:23.651Z,1018.14
2022-11-25T00:35:23.654Z,1018.14
2022-11-25T00:36:23.666Z,1018.12
2022-11-25T00:37:23.645Z,1018.08
2022-11-25T00:38:23.629Z,1018.11
2022-11-25T00:39:23.630Z,1018.14
2022-11-25T00:40:23.650Z,1018.1
2022-11-25T00:41:23.637Z,1018.13
2022-11-25T00:42:23.631Z,1018.13
2022-11-25T00:43:23.626Z,1018.13
2022-11-25T00:44:23.639Z,1018.14
2022-11-25T00:45:23.739Z,1018.15
2022-11-25T00:46:23.630Z,1018.08
2022-11-25T00:47:23.618Z,1018.12
2022-11-25T00:48:23.636Z,1018.1
2022-11-25T00:49:23.624Z,1018.08
2022-11-25T00:50:23.664Z,1018.06
2022-11-25T00:51:23.625Z,1018.03
2022-11-25T00:52:23.620Z,1018.08
2022-11-25T00:53:23.629Z,1018.1
2022-11-25T00:54:23.619Z,1018.07
2022-11-25T00:55:23.662Z,1018.09
2022-11-25T00:56:23.679Z,1018.08
2022-11-25T00:57:23.662Z,1018.11
2022-11-25T00:58:23.653Z,1018.11
2022-11-25T00:59:23.638Z,1018.1
2022-11-25T01:00:23.652Z,1018.12
2022-11-25T01:01:23.685Z,1018.14
2022-11-25T01:02:23.853Z,1018.18
2022-11-25T01:03:23.632Z,1018.23
2022-11-25T01:04:23.642Z,1018.22
2022-11-25T01:05:23.645Z,1018.22
2022-11-25T01:06:23.637Z,1018.21
2022-11-25T01:07:23.684Z,1018.24
2022-11-25T01:08:23.636Z,1018.24
2022-11-25T01:09:23.641Z,1018.24
2022-11-25T01:10:23.655Z,1018.32
2022-11-25T01:11:23.640Z,1018.3
2022-11-25T01:12:23.637Z,1018.3
2022-11-25T01:13:23.639Z,1018.32
2022-11-25T01:14:23.643Z,1018.31
2022-11-25T01:15:23.648Z,1018.29
2022-11-25T01:16:23.676Z,1018.32
2022-11-25T01:17:23.634Z,1018.32
2022-11-25T01:18:23.678Z,1018.32
2022-11-25T01:19:23.644Z,1018.3
2022-11-25T01:20:23.659Z,1018.27
2022-11-25T01:21:23.721Z,1018.24
2022-11-25T01:22:23.630Z,1018.28
2022-11-25T01:23:23.658Z,1018.28
2022-11-25T01:24:24.254Z,1018.25
2022-11-25T01:25:23.650Z,1018.23
2022-11-25T01:26:23.632Z,1018.23
2022-11-25T01:27:23.631Z,1018.21
2022-11-25T01:28:23.632Z,1018.24
2022-11-25T01:29:23.645Z,1018.2
2022-11-25T01:30:23.661Z,1018.23
2022-11-25T01:31:23.775Z,1018.18
2022-11-25T01:32:23.640Z,1018.25
2022-11-25T01:33:23.634Z,1018.23
2022-11-25T01:34:23.643Z,1018.17
2022-11-25T01:35:23.647Z,1018.25
2022-11-25T01:36:23.637Z,1018.2
2022-11-25T01:37:23.646Z,1018.2
2022-11-25T01:38:23.643Z,1018.14
2022-11-25T01:39:27.078Z,1018.1
2022-11-25T01:40:23.662Z,1018.11
2022-11-25T01:41:23.652Z,1018.16
2022-11-25T01:42:23.644Z,1018.16
2022-11-25T01:43:23.632Z,1018.15
2022-11-25T01:44:23.641Z,1018.16
2022-11-25T01:45:26.714Z,1018.17
2022-11-25T01:46:23.659Z,1018.22
2022-11-25T01:47:23.680Z,1018.21
2022-11-25T01:48:23.619Z,1018.12
2022-11-25T01:49:23.639Z,1018.12
2022-11-25T01:50:23.646Z,1018.1
2022-11-25T01:51:23.631Z,1018.13
2022-11-25T01:52:23.625Z,1018.17
2022-11-25T01:53:23.624Z,1018.15
2022-11-25T01:54:23.623Z,1018.13
2022-11-25T01:55:23.653Z,1018.2
2022-11-25T01:56:23.623Z,1018.15
2022-11-25T01:57:23.624Z,1018.13
2022-11-25T01:58:23.638Z,1018.1
2022-11-25T01:59:23.618Z,1018.13
2022-11-25T02:00:23.648Z,1018.12
2022-11-25T02:01:23.658Z,1018.1
2022-11-25T02:02:23.707Z,1018.18
2022-11-25T02:03:23.632Z,1018.11
2022-11-25T02:04:23.629Z,1018.12
2022-11-25T02:05:23.652Z,1018.15
2022-11-25T02:06:23.659Z,1018.16
2022-11-25T02:07:23.685Z,1018.16
2022-11-25T02:08:23.633Z,1018.16
2022-11-25T02:09:23.630Z,1018.16
2022-11-25T02:10:23.652Z,1018.21
2022-11-25T02:11:23.640Z,1018.22
2022-11-25T02:12:23.637Z,1018.19
2022-11-25T02:13:23.640Z,1018.2
2022-11-25T02:14:23.636Z,1018.24
2022-11-25T02:15:23.649Z,1018.22
2022-11-25T02:16:23.696Z,1018.22
2022-11-25T02:17:23.628Z,1018.19
2022-11-25T02:18:23.640Z,1018.23
2022-11-25T02:19:23.640Z,1018.24
2022-11-25T02:20:23.656Z,1018.2
2022-11-25T02:21:23.631Z,1018.21
2022-11-25T02:22:23.753Z,1018.21
2022-11-25T02:23:23.636Z,1018.18
2022-11-25T02:24:23.639Z,1018.19
2022-11-25T02:25:23.653Z,1018.17
2022-11-25T02:26:23.639Z,1018.16
2022-11-25T02:27:23.673Z,1018.13
2022-11-25T02:28:23.647Z,1018.12
2022-11-25T02:29:23.640Z,1018.12
2022-11-25T02:30:23.666Z,1018.12
2022-11-25T02:31:23.703Z,1018.16
2022-11-25T02:32:23.643Z,1018.19
2022-11-25T02:33:23.630Z,1018.16
2022-11-25T02:34:23.646Z,1018.15
2022-11-25T02:35:23.654Z,1018.19
2022-11-25T02:36:23.642Z,1018.14
2022-11-25T02:37:23.648Z,1018.19
2022-11-25T02:38:23.649Z,1018.17
2022-11-25T02:39:23.635Z,1018.16
2022-11-25T02:40:23.652Z,1018.19
2022-11-25T02:41:23.628Z,1018.17
2022-11-25T02:42:23.648Z,1018.14
2022-11-25T02:43:23.679Z,1018.12
2022-11-25T02:44:23.639Z,1018.12
2022-11-25T02:45:23.708Z,1018.13
2022-11-25T02:46:23.721Z,1018.1
2022-11-25T02:47:23.637Z,1018.08
2022-11-25T02:48:39.677Z,1018.05
2022-11-25T02:49:23.725Z,1018.06
2022-11-25T02:50:23.647Z,1018.03
2022-11-25T02:51:23.642Z,1018.04
2022-11-25T02:52:23.628Z,1018.03
2022-11-25T02:53:23.631Z,1018.06
2022-11-25T02:54:23.622Z,1018.05
2022-11-25T02:55:23.671Z,1018.1
2022-11-25T02:56:23.613Z,1018.1
2022-11-25T02:57:23.614Z,1018.07
2022-11-25T02:58:23.621Z,1018.11
2022-11-25T02:59:23.625Z,1018.2
2022-11-25T03:00:23.645Z,1018.2
2022-11-25T03:01:23.702Z,1018.19
2022-11-25T03:02:23.650Z,1018.24
2022-11-25T03:03:23.613Z,1018.24
2022-11-25T03:04:23.615Z,1018.13
2022-11-25T03:05:23.630Z,1018.19
2022-11-25T03:06:23.620Z,1018.2
2022-11-25T03:07:23.669Z,1018.17
2022-11-25T03:08:23.662Z,1018.24
2022-11-25T03:09:23.625Z,1018.25
2022-11-25T03:10:23.652Z,1018.29
2022-11-25T03:11:23.621Z,1018.28
2022-11-25T03:12:23.616Z,1018.29
2022-11-25T03:13:23.617Z,1018.29
2022-11-25T03:14:23.718Z,1018.27
2022-11-25T03:15:23.660Z,1018.33
2022-11-25T03:16:23.726Z,1018.31
2022-11-25T03:17:23.670Z,1018.29
2022-11-25T03:18:23.626Z,1018.31
2022-11-25T03:19:23.643Z,1018.3
2022-11-25T03:20:23.716Z,1018.31
2022-11-25T03:21:23.640Z,1018.29
2022-11-25T03:22:23.636Z,1018.3
2022-11-25T03:23:23.628Z,1018.31
2022-11-25T03:24:23.632Z,1018.36
2022-11-25T03:25:23.668Z,1018.36
2022-11-25T03:26:23.630Z,1018.39
2022-11-25T03:27:23.635Z,1018.38
2022-11-25T03:28:23.639Z,1018.39
2022-11-25T03:29:23.640Z,1018.38
2022-11-25T03:30:23.642Z,1018.37
2022-11-25T03:31:23.676Z,1018.37
2022-11-25T03:32:23.640Z,1018.4
2022-11-25T03:33:23.640Z,1018.39
2022-11-25T03:34:23.630Z,1018.36
2022-11-25T03:35:23.639Z,1018.39
2022-11-25T03:36:23.627Z,1018.37
2022-11-25T03:37:23.705Z,1018.43
2022-11-25T03:38:23.646Z,1018.45
2022-11-25T03:39:23.648Z,1018.44
2022-11-25T03:40:23.662Z,1018.46
2022-11-25T03:41:23.635Z,1018.44
2022-11-25T03:42:23.640Z,1018.41
2022-11-25T03:43:23.632Z,1018.42
2022-11-25T03:44:23.628Z,1018.48
2022-11-25T03:45:23.648Z,1018.51
2022-11-25T03:46:23.772Z,1018.53
2022-11-25T03:47:23.639Z,1018.49
2022-11-25T03:48:23.634Z,1018.57
2022-11-25T03:49:23.635Z,1018.57
2022-11-25T03:50:23.644Z,1018.58
2022-11-25T03:51:23.638Z,1018.57
2022-11-25T03:52:23.642Z,1018.56
2022-11-25T03:53:23.642Z,1018.59
2022-11-25T03:54:23.639Z,1018.62
2022-11-25T03:55:23.651Z,1018.64
2022-11-25T03:56:23.614Z,1018.66
2022-11-25T03:57:23.640Z,1018.66
2022-11-25T03:58:23.643Z,1018.64
2022-11-25T03:59:23.634Z,1018.64
2022-11-25T04:00:23.642Z,1018.67
2022-11-25T04:01:23.659Z,1018.66
2022-11-25T04:02:23.705Z,1018.68
2022-11-25T04:03:23.620Z,1018.7
2022-11-25T04:04:23.621Z,1018.7
2022-11-25T04:05:23.646Z,1018.7
2022-11-25T04:06:23.624Z,1018.75
2022-11-25T04:07:23.665Z,1018.76
2022-11-25T04:08:23.625Z,1018.74
2022-11-25T04:09:23.614Z,1018.74
2022-11-25T04:10:23.647Z,1018.81
2022-11-25T04:11:23.613Z,1018.76
2022-11-25T04:12:23.614Z,1018.81
2022-11-25T04:13:23.614Z,1018.83
2022-11-25T04:14:23.615Z,1018.82
2022-11-25T04:15:23.648Z,1018.84
2022-11-25T04:16:23.713Z,1018.86
2022-11-25T04:17:23.618Z,1018.83
2022-11-25T04:18:23.628Z,1018.88
2022-11-25T04:19:23.614Z,1018.89
2022-11-25T04:20:23.636Z,1018.86
2022-11-25T04:21:23.622Z,1018.88
2022-11-25T04:22:23.614Z,1018.86
2022-11-25T04:23:23.650Z,1018.85
2022-11-25T04:24:23.634Z,1018.82
2022-11-25T04:25:23.645Z,1018.79
2022-11-25T04:26:23.624Z,1018.77
2022-11-25T04:27:23.634Z,1018.76
2022-11-25T04:28:23.641Z,1018.78
2022-11-25T04:29:23.644Z,1018.74
2022-11-25T04:30:23.657Z,1018.79
2022-11-25T04:31:23.626Z,1018.76
2022-11-25T04:32:23.637Z,1018.81
2022-11-25T04:33:23.635Z,1018.84
2022-11-25T04:34:23.626Z,1018.91
2022-11-25T04:35:23.642Z,1018.89
2022-11-25T04:36:23.634Z,1018.88
2022-11-25T04:37:23.655Z,1018.91
2022-11-25T04:38:23.634Z,1018.9
2022-11-25T04:39:23.634Z,1018.91
2022-11-25T04:40:23.646Z,1018.87
2022-11-25T04:41:23.630Z,1018.91
2022-11-25T04:42:23.635Z,1018.85
2022-11-25T04:43:23.641Z,1018.84
2022-11-25T04:44:23.637Z,1018.84
2022-11-25T04:45:24.225Z,1018.88
2022-11-25T04:46:23.703Z,1018.88
2022-11-25T04:47:23.629Z,1018.93
2022-11-25T04:48:23.632Z,1018.9
2022-11-25T04:49:23.634Z,1018.94
2022-11-25T04:50:23.644Z,1018.97
2022-11-25T04:51:23.619Z,1018.89
2022-11-25T04:52:23.639Z,1018.93
2022-11-25T04:53:23.645Z,1018.91
2022-11-25T04:54:23.642Z,1018.9
2022-11-25T04:55:23.655Z,1018.95
2022-11-25T04:56:23.633Z,1018.97
2022-11-25T04:57:23.641Z,1019.01
2022-11-25T04:58:23.646Z,1018.96
2022-11-25T04:59:23.644Z,1019
2022-11-25T05:00:23.662Z,1019.04
2022-11-25T05:01:23.727Z,1019.01
2022-11-25T05:02:23.659Z,1018.99
2022-11-25T05:03:23.647Z,1019.03
2022-11-25T05:04:23.636Z,1018.99
2022-11-25T05:05:23.646Z,1018.99
2022-11-25T05:06:23.629Z,1019.04
2022-11-25T05:07:23.666Z,1019.07
2022-11-25T05:08:23.630Z,1019.03
2022-11-25T05:09:23.632Z,1019.02
2022-11-25T05:10:23.649Z,1019.04
2022-11-25T05:11:23.638Z,1019
2022-11-25T05:12:23.642Z,1019.05
2022-11-25T05:13:23.642Z,1019.09
2022-11-25T05:14:23.636Z,1019.08
2022-11-25T05:15:23.642Z,1019.06
2022-11-25T05:16:23.696Z,1019.03
2022-11-25T05:17:23.619Z,1019.02
2022-11-25T05:18:23.625Z,1019.03
2022-11-25T05:19:23.616Z,1019.06
2022-11-25T05:20:23.643Z,1019.05
2022-11-25T05:21:23.615Z,1019.06
2022-11-25T05:22:23.615Z,1019.06
2022-11-25T05:23:23.622Z,1019.09
2022-11-25T05:24:23.615Z,1019.09
2022-11-25T05:25:23.646Z,1019.1
2022-11-25T05:26:23.615Z,1019.11
2022-11-25T05:27:23.621Z,1019.08
2022-11-25T05:28:23.622Z,1019.13
2022-11-25T05:29:23.619Z,1019.13
2022-11-25T05:30:23.682Z,1019.23
2022-11-25T05:31:23.619Z,1019.17
2022-11-25T05:32:23.620Z,1019.16
2022-11-25T05:33:23.629Z,1019.18
2022-11-25T05:34:23.630Z,1019.14
2022-11-25T05:35:23.642Z,1019.14
2022-11-25T05:36:23.621Z,1019.14
2022-11-25T05:37:24.741Z,1019.14
2022-11-25T05:38:23.634Z,1019.2
2022-11-25T05:39:23.632Z,1019.19
2022-11-25T05:40:23.650Z,1019.19
2022-11-25T05:41:23.616Z,1019.16
2022-11-25T05:42:23.639Z,1019.16
2022-11-25T05:43:23.632Z,1019.17
2022-11-25T05:44:23.639Z,1019.18
2022-11-25T05:45:23.646Z,1019.15
2022-11-25T05:46:23.688Z,1019.09
2022-11-25T05:47:23.639Z,1019.13
2022-11-25T05:48:23.620Z,1019.1
2022-11-25T05:49:23.634Z,1019.11
2022-11-25T05:50:23.645Z,1019.11
2022-11-25T05:51:23.622Z,1019.08
2022-11-25T05:52:23.639Z,1019.07
2022-11-25T05:53:23.635Z,1019.08
2022-11-25T05:54:23.640Z,1019.11
2022-11-25T05:55:23.644Z,1019.09
2022-11-25T05:56:23.629Z,1019.12
2022-11-25T05:57:23.618Z,1019.13
2022-11-25T05:58:23.640Z,1019.18
2022-11-25T05:59:23.618Z,1019.16
2022-11-25T06:00:26.540Z,1019.2
2022-11-25T06:01:23.637Z,1019.2
2022-11-25T06:02:23.685Z,1019.21
2022-11-25T06:03:23.709Z,1019.23
2022-11-25T06:04:23.630Z,1019.28
2022-11-25T06:05:23.647Z,1019.26
2022-11-25T06:06:23.632Z,1019.24
2022-11-25T06:07:23.668Z,1019.25
2022-11-25T06:08:23.645Z,1019.26
2022-11-25T06:09:23.643Z,1019.26
2022-11-25T06:10:23.649Z,1019.27
2022-11-25T06:11:23.652Z,1019.3
2022-11-25T06:12:23.629Z,1019.34
2022-11-25T06:13:23.639Z,1019.35
2022-11-25T06:14:23.624Z,1019.32
2022-11-25T06:15:23.640Z,1019.31
2022-11-25T06:16:23.765Z,1019.34
2022-11-25T06:17:23.636Z,1019.32
2022-11-25T06:18:23.624Z,1019.34
2022-11-25T06:19:23.634Z,1019.35
2022-11-25T06:20:23.647Z,1019.4
2022-11-25T06:21:23.626Z,1019.42
2022-11-25T06:22:23.640Z,1019.4
2022-11-25T06:23:23.638Z,1019.41
2022-11-25T06:24:23.637Z,1019.49
2022-11-25T06:25:23.643Z,1019.45
2022-11-25T06:26:23.634Z,1019.5
2022-11-25T06:27:23.619Z,1019.46
2022-11-25T06:28:23.614Z,1019.45
2022-11-25T06:29:23.628Z,1019.49
2022-11-25T06:30:23.655Z,1019.46
2022-11-25T06:31:23.678Z,1019.56
2022-11-25T06:32:23.617Z,1019.55
2022-11-25T06:33:23.626Z,1019.52
2022-11-25T06:34:23.620Z,1019.49
2022-11-25T06:35:23.643Z,1019.52
2022-11-25T06:36:23.623Z,1019.5
2022-11-25T06:37:23.621Z,1019.47
2022-11-25T06:38:23.626Z,1019.48
2022-11-25T06:39:23.705Z,1019.48
2022-11-25T06:40:23.641Z,1019.54
2022-11-25T06:41:23.617Z,1019.53
2022-11-25T06:42:23.621Z,1019.52
2022-11-25T06:43:23.628Z,1019.54
2022-11-25T06:44:23.621Z,1019.53
2022-11-25T06:45:23.646Z,1019.52
2022-11-25T06:46:25.335Z,1019.58
2022-11-25T06:47:23.621Z,1019.61
2022-11-25T06:48:23.615Z,1019.62
2022-11-25T06:49:23.621Z,1019.61
2022-11-25T06:50:23.650Z,1019.6
2022-11-25T06:51:23.642Z,1019.61
2022-11-25T06:52:23.635Z,1019.58
2022-11-25T06:53:24.281Z,1019.6
2022-11-25T06:54:23.639Z,1019.61
2022-11-25T06:55:23.646Z,1019.61
2022-11-25T06:56:23.639Z,1019.62
2022-11-25T06:57:23.628Z,1019.63
2022-11-25T06:58:35.430Z,1019.71
2022-11-25T06:59:23.634Z,1019.71
2022-11-25T07:00:23.742Z,1019.72
2022-11-25T07:01:23.702Z,1019.69
2022-11-25T07:02:23.679Z,1019.7
2022-11-25T07:03:23.736Z,1019.73
2022-11-25T07:04:23.627Z,1019.73
2022-11-25T07:05:23.648Z,1019.72
2022-11-25T07:06:23.637Z,1019.77
2022-11-25T07:07:23.708Z,1019.77
2022-11-25T07:08:23.632Z,1019.75
2022-11-25T07:09:23.624Z,1019.72
2022-11-25T07:10:23.649Z,1019.7
2022-11-25T07:11:23.637Z,1019.7
2022-11-25T07:12:23.623Z,1019.72
2022-11-25T07:13:23.638Z,1019.73
2022-11-25T07:14:23.637Z,1019.8
2022-11-25T07:15:23.642Z,1019.74
2022-11-25T07:16:23.628Z,1019.75
2022-11-25T07:17:23.634Z,1019.78
2022-11-25T07:18:23.638Z,1019.82
2022-11-25T07:19:23.643Z,1019.84
2022-11-25T07:20:23.653Z,1019.81
2022-11-25T07:21:23.630Z,1019.81
2022-11-25T07:22:23.644Z,1019.87
2022-11-25T07:23:23.619Z,1019.84
2022-11-25T07:24:23.637Z,1019.81
2022-11-25T07:25:29.348Z,1019.79
2022-11-25T07:26:23.635Z,1019.82
2022-11-25T07:27:23.638Z,1019.8
2022-11-25T07:28:23.633Z,1019.77
2022-11-25T07:29:51.626Z,1019.77
2022-11-25T07:31:27.136Z,1019.74
2022-11-25T07:32:23.635Z,1019.69
2022-11-25T07:33:23.666Z,1019.65
2022-11-25T07:34:23.639Z,1019.71
2022-11-25T07:35:23.642Z,1019.69
2022-11-25T07:36:23.631Z,1019.69
2022-11-25T07:37:23.635Z,1019.72
2022-11-25T07:38:23.637Z,1019.7
2022-11-25T07:39:23.621Z,1019.69
2022-11-25T07:40:23.641Z,1019.63
2022-11-25T07:41:23.618Z,1019.59
2022-11-25T07:42:23.617Z,1019.66
2022-11-25T07:43:23.630Z,1019.55
2022-11-25T07:44:23.627Z,1019.62
2022-11-25T07:45:23.647Z,1019.61
2022-11-25T07:46:26.779Z,1019.62
2022-11-25T07:47:23.627Z,1019.6
2022-11-25T07:48:23.620Z,1019.56
2022-11-25T07:49:23.626Z,1019.59
2022-11-25T07:50:23.640Z,1019.59
2022-11-25T07:51:23.625Z,1019.58
2022-11-25T07:52:23.626Z,1019.68
2022-11-25T07:53:23.620Z,1019.68
2022-11-25T07:54:23.625Z,1019.7
2022-11-25T07:55:23.647Z,1019.69
2022-11-25T07:56:23.615Z,1019.64
2022-11-25T07:57:23.623Z,1019.72
2022-11-25T07:58:23.619Z,1019.68
2022-11-25T07:59:23.621Z,1019.63
2022-11-25T08:00:23.654Z,1019.63
2022-11-25T08:01:23.769Z,1019.65
2022-11-25T08:02:23.671Z,1019.65
2022-11-25T08:03:23.680Z,1019.64
2022-11-25T08:04:23.633Z,1019.64
2022-11-25T08:05:23.636Z,1019.64
2022-11-25T08:06:23.625Z,1019.65
2022-11-25T08:07:23.698Z,1019.65
2022-11-25T08:08:23.642Z,1019.63
2022-11-25T08:09:23.673Z,1019.62
2022-11-25T08:10:23.659Z,1019.64
2022-11-25T08:11:23.639Z,1019.66
2022-11-25T08:12:23.639Z,1019.63
2022-11-25T08:13:23.635Z,1019.68
2022-11-25T08:14:23.643Z,1019.71
2022-11-25T08:15:23.648Z,1019.68
2022-11-25T08:16:23.705Z,1019.68
2022-11-25T08:17:23.652Z,1019.77
2022-11-25T08:18:23.635Z,1019.72
2022-11-25T08:19:28.404Z,1019.71
2022-11-25T08:20:23.662Z,1019.68
2022-11-25T08:21:23.638Z,1019.71
2022-11-25T08:22:23.632Z,1019.66
2022-11-25T08:23:23.643Z,1019.68
2022-11-25T08:24:23.632Z,1019.68
2022-11-25T08:25:23.645Z,1019.6
2022-11-25T08:26:23.624Z,1019.57
2022-11-25T08:27:23.639Z,1019.56
2022-11-25T08:28:23.636Z,1019.55
2022-11-25T08:29:23.636Z,1019.63
2022-11-25T08:30:23.658Z,1019.6
2022-11-25T08:31:23.841Z,1019.59
2022-11-25T08:32:23.638Z,1019.55
2022-11-25T08:33:23.642Z,1019.6
2022-11-25T08:34:23.637Z,1019.57
2022-11-25T08:35:23.644Z,1019.53
2022-11-25T08:36:23.623Z,1019.63
2022-11-25T08:37:23.630Z,1019.58
2022-11-25T08:38:23.639Z,1019.59
2022-11-25T08:39:51.114Z,1019.62
2022-11-25T08:40:23.682Z,1019.58
2022-11-25T08:41:23.647Z,1019.61
2022-11-25T08:42:23.633Z,1019.56
2022-11-25T08:43:29.062Z,1019.55
2022-11-25T08:44:23.634Z,1019.5
2022-11-25T08:45:23.644Z,1019.49
2022-11-25T08:46:23.648Z,1019.5
2022-11-25T08:47:23.638Z,1019.57
2022-11-25T08:48:23.641Z,1019.49
2022-11-25T08:49:23.635Z,1019.45
2022-11-25T08:50:23.717Z,1019.4
2022-11-25T08:51:23.638Z,1019.41
2022-11-25T08:52:23.645Z,1019.4
2022-11-25T08:53:23.629Z,1019.41
2022-11-25T08:54:23.623Z,1019.41
2022-11-25T08:55:23.649Z,1019.42
2022-11-25T08:56:26.341Z,1019.43
2022-11-25T08:57:23.626Z,1019.41
2022-11-25T08:58:23.623Z,1019.43
2022-11-25T08:59:23.621Z,1019.4
2022-11-25T09:00:23.661Z,1019.37
2022-11-25T09:01:23.674Z,1019.36
2022-11-25T09:02:23.658Z,1019.39
2022-11-25T09:03:23.665Z,1019.35
2022-11-25T09:04:23.621Z,1019.34
2022-11-25T09:05:23.655Z,1019.33
2022-11-25T09:06:23.622Z,1019.31
2022-11-25T09:07:29.138Z,1019.33
2022-11-25T09:08:23.631Z,1019.35
2022-11-25T09:09:23.622Z,1019.34
2022-11-25T09:10:23.663Z,1019.35
2022-11-25T09:11:23.744Z,1019.4
2022-11-25T09:12:23.620Z,1019.44
2022-11-25T09:13:23.638Z,1019.42
2022-11-25T09:14:23.703Z,1019.42
2022-11-25T09:15:23.658Z,1019.43
2022-11-25T09:16:25.777Z,1019.41
2022-11-25T09:17:23.686Z,1019.45
2022-11-25T09:18:23.630Z,1019.46
2022-11-25T09:19:23.629Z,1019.4
2022-11-25T09:20:23.648Z,1019.38
2022-11-25T09:21:23.632Z,1019.42
2022-11-25T09:22:23.640Z,1019.4
2022-11-25T09:23:23.630Z,1019.32
2022-11-25T09:24:23.638Z,1019.36
2022-11-25T09:25:23.645Z,1019.35
2022-11-25T09:26:23.649Z,1019.39
2022-11-25T09:27:23.652Z,1019.31
2022-11-25T09:28:23.627Z,1019.3
2022-11-25T09:29:23.633Z,1019.37
2022-11-25T09:30:23.733Z,1019.3
2022-11-25T09:31:23.704Z,1019.32
2022-11-25T09:32:23.640Z,1019.27
2022-11-25T09:33:23.639Z,1019.19
2022-11-25T09:34:23.654Z,1019.18
2022-11-25T09:35:23.647Z,1019.19
2022-11-25T09:36:23.659Z,1019.2
2022-11-25T09:37:23.646Z,1019.26
2022-11-25T09:38:23.635Z,1019.24
2022-11-25T09:39:23.625Z,1019.31
2022-11-25T09:40:23.665Z,1019.23
2022-11-25T09:41:23.664Z,1019.23
2022-11-25T09:42:23.622Z,1019.24
2022-11-25T09:43:23.639Z,1019.2
2022-11-25T09:44:23.636Z,1019.18
2022-11-25T09:45:23.643Z,1019.24
2022-11-25T09:46:23.699Z,1019.24
2022-11-25T09:47:23.636Z,1019.27
2022-11-25T09:48:23.632Z,1019.24
2022-11-25T09:49:23.634Z,1019.24
2022-11-25T09:50:23.653Z,1019.23
2022-11-25T09:51:23.625Z,1019.18
2022-11-25T09:52:29.500Z,1019.16
2022-11-25T09:53:28.287Z,1019.19
2022-11-25T09:54:28.301Z,1019.22
2022-11-25T09:55:28.291Z,1019.2
2022-11-25T09:56:28.259Z,1019.2
2022-11-25T09:57:28.311Z,1019.17
2022-11-25T09:58:28.262Z,1019.2
2022-11-25T09:59:28.283Z,1019.21
2022-11-25T10:00:28.283Z,1019.19
2022-11-25T10:01:28.279Z,1019.2
2022-11-25T10:02:28.378Z,1019.15
2022-11-25T10:03:28.336Z,1019.13
2022-11-25T10:04:28.259Z,1019.12
2022-11-25T10:05:28.271Z,1019.16
2022-11-25T10:06:28.369Z,1019.15
2022-11-25T10:07:28.264Z,1019.16
2022-11-25T10:08:28.265Z,1019.17
2022-11-25T10:09:28.263Z,1019.18
2022-11-25T10:10:28.293Z,1019.16
2022-11-25T10:11:28.275Z,1019.15
2022-11-25T10:12:28.264Z,1019.12
2022-11-25T10:13:28.264Z,1019.14
2022-11-25T10:14:28.263Z,1019.19
2022-11-25T10:15:28.280Z,1019.2
2022-11-25T10:16:28.361Z,1019.18
2022-11-25T10:17:28.260Z,1019.18
2022-11-25T10:18:28.262Z,1019.19
2022-11-25T10:19:28.263Z,1019.17
2022-11-25T10:20:28.266Z,1019.18
2022-11-25T10:21:28.255Z,1019.17
2022-11-25T10:22:28.260Z,1019.16
2022-11-25T10:23:28.750Z,1019.22
2022-11-25T10:24:28.256Z,1019.2
2022-11-25T10:25:28.273Z,1019.19
2022-11-25T10:26:28.262Z,1019.18
2022-11-25T10:27:28.262Z,1019.17
2022-11-25T10:28:28.267Z,1019.18
2022-11-25T10:29:28.253Z,1019.12
2022-11-25T10:30:28.265Z,1019.16
2022-11-25T10:31:28.298Z,1019.19
2022-11-25T10:32:28.263Z,1019.16
2022-11-25T10:33:28.260Z,1019.21
2022-11-25T10:34:28.251Z,1019.17
2022-11-25T10:35:28.279Z,1019.14
2022-11-25T10:36:28.242Z,1019.16
2022-11-25T10:37:28.257Z,1019.17
2022-11-25T10:38:28.243Z,1019.13
2022-11-25T10:39:28.265Z,1019.13
2022-11-25T10:40:28.287Z,1019.17
2022-11-25T10:41:28.248Z,1019.16
2022-11-25T10:42:28.254Z,1019.16
2022-11-25T10:43:31.721Z,1019.22
2022-11-25T10:44:28.259Z,1019.23
2022-11-25T10:45:28.277Z,1019.19
2022-11-25T10:46:43.322Z,1019.13
2022-11-25T10:47:28.348Z,1019.1
2022-11-25T10:48:28.238Z,1019.08
2022-11-25T10:49:28.247Z,1019.08
2022-11-25T10:50:28.271Z,1019.11
2022-11-25T10:51:28.234Z,1019.1
2022-11-25T10:52:28.272Z,1019.13
2022-11-25T10:53:28.240Z,1019.11
2022-11-25T10:54:28.338Z,1019.17
2022-11-25T10:55:28.342Z,1019.11
2022-11-25T10:56:28.242Z,1019.12
2022-11-25T10:57:28.241Z,1019.12
2022-11-25T10:58:28.248Z,1019.13
2022-11-25T10:59:28.241Z,1019.11
2022-11-25T11:00:28.266Z,1019.11
2022-11-25T11:01:28.272Z,1019.08
2022-11-25T11:02:28.286Z,1019.11
2022-11-25T11:03:28.322Z,1019.18
2022-11-25T11:04:28.252Z,1019.19
2022-11-25T11:05:28.271Z,1019.17
2022-11-25T11:06:28.263Z,1019.12
2022-11-25T11:07:28.310Z,1019.11
2022-11-25T11:08:28.257Z,1019.15
2022-11-25T11:09:28.257Z,1019.12
2022-11-25T11:10:28.273Z,1019.04
2022-11-25T11:11:28.264Z,1019.1
2022-11-25T11:12:28.260Z,1019.1
2022-11-25T11:13:28.258Z,1019.09
2022-11-25T11:14:28.251Z,1019.12
2022-11-25T11:15:28.271Z,1019.07
2022-11-25T11:16:28.350Z,1019.02
2022-11-25T11:17:31.903Z,1019.04
2022-11-25T11:18:28.254Z,1019.07
2022-11-25T11:19:28.257Z,1019.07
2022-11-25T11:20:28.283Z,1019.04
2022-11-25T11:21:28.260Z,1019.01
2022-11-25T11:22:28.248Z,1019.01
2022-11-25T11:23:28.249Z,1018.97
2022-11-25T11:24:28.259Z,1019.16
2022-11-25T11:25:28.288Z,1019.13
2022-11-25T11:26:28.255Z,1019.08
2022-11-25T11:27:28.258Z,1019.09
2022-11-25T11:28:28.258Z,1019.11
2022-11-25T11:29:28.256Z,1019.01
2022-11-25T11:30:28.253Z,1019.09
2022-11-25T11:31:28.386Z,1019.09
2022-11-25T11:32:28.257Z,1019.03
2022-11-25T11:33:28.268Z,1019.01
2022-11-25T11:34:28.268Z,1019.14
2022-11-25T11:35:28.263Z,1019.15
2022-11-25T11:36:28.271Z,1019.16
2022-11-25T11:37:28.255Z,1019.18
2022-11-25T11:38:28.271Z,1019.23
2022-11-25T11:39:28.256Z,1019.27
2022-11-25T11:40:28.260Z,1019.17
2022-11-25T11:41:28.260Z,1019.24
2022-11-25T11:42:28.254Z,1019.21
2022-11-25T11:43:28.257Z,1019.23
2022-11-25T11:44:28.249Z,1019.26
2022-11-25T11:45:28.293Z,1019.35
2022-11-25T11:46:28.287Z,1019.17
2022-11-25T11:47:28.248Z,1019.12
2022-11-25T11:48:28.248Z,1019.2
2022-11-25T11:49:30.704Z,1019.18
2022-11-25T11:50:28.269Z,1019.17
2022-11-25T11:51:28.234Z,1019.31
2022-11-25T11:52:28.246Z,1019.28
2022-11-25T11:53:28.235Z,1019.42
2022-11-25T11:54:28.235Z,1019.28
2022-11-25T11:55:28.491Z,1019.33
2022-11-25T11:56:35.299Z,1019.31
2022-11-25T11:57:28.239Z,1019.23
2022-11-25T11:58:28.241Z,1019.25
2022-11-25T11:59:28.261Z,1019.25
2022-11-25T12:00:28.246Z,1019.3
2022-11-25T12:01:28.257Z,1019.34
2022-11-25T12:02:28.293Z,1019.46
2022-11-25T12:03:28.300Z,1019.33
2022-11-25T12:04:28.246Z,1019.53
2022-11-25T12:05:28.266Z,1019.32
2022-11-25T12:06:28.233Z,1019.37
2022-11-25T12:07:28.285Z,1019.41
2022-11-25T12:08:28.237Z,1019.38
2022-11-25T12:09:28.245Z,1019.39